Time;durP1;ratioP1;P1;durP2;ratioP2;P2;SDS_P1;SDS_P2;PMS_P1;PMS_P2;Temp;Humidity;BMP_temperature;BMP_pressure;BME280_temperature;BME280_humidity;BME280_pressure;Samples;Min_cycle;Max_cycle;Signal;HPM_P1;HPM_P2
2022/11/05 00:10:36;;;;;;;87.10;48.30;;;;;;;11.50;72.52;99400.81;5053828;28;20039;-45
2022/11/05 00:18:30;;;;;;;72.03;43.58;;;;;;;11.33;73.06;99397.88;5053411;28;20036;-46
2022/11/05 00:20:56;;;;;;;78.18;43.08;;;;;;;11.71;71.40;99405.75;5053157;28;20029;-44
2022/11/05 00:26:08;;;;;;;74.78;41.97;;;;;;;11.84;69.87;99406.66;5053511;28;20401;-46
2022/11/05 00:28:35;;;;;;;80.20;42.17;;;;;;;11.73;70.55;99401.00;5053486;28;20082;-48
2022/11/05 00:31:05;;;;;;;72.75;41.90;;;;;;;11.84;70.16;99394.16;5053654;28;20025;-48
2022/11/05 00:33:31;;;;;;;74.13;41.35;;;;;;;11.75;70.45;99400.81;5053601;28;20043;-46
2022/11/05 00:35:57;;;;;;;76.85;40.55;;;;;;;11.66;70.88;99410.09;5053238;28;20024;-48
2022/11/05 00:38:23;;;;;;;76.90;40.90;;;;;;;11.57;71.63;99395.41;5053387;28;20023;-42
2022/11/05 00:40:49;;;;;;;68.30;40.45;;;;;;;11.62;71.10;99392.94;5052482;28;20021;-44
2022/11/05 00:45:58;;;;;;;61.28;34.95;;;;;;;11.65;71.01;99393.31;5051939;28;20040;-43
2022/11/05 00:51:07;;;;;;;58.90;34.50;;;;;;;11.41;71.02;99394.13;5051842;28;20035;-43
2022/11/05 00:53:33;;;;;;;62.63;34.78;;;;;;;11.51;71.02;99397.09;5051757;28;20033;-43
2022/11/05 00:55:59;;;;;;;61.22;34.95;;;;;;;11.43;71.64;99400.06;5052327;28;20025;-44
2022/11/05 00:58:27;;;;;;;57.92;34.58;;;;;;;11.37;72.26;99396.41;5052333;28;20017;-43
2022/11/05 01:00:57;;;;;;;59.33;35.42;;;;;;;11.53;70.19;99381.72;5051993;28;20104;-43
2022/11/05 01:03:32;;;;;;;59.47;34.53;;;;;;;11.67;70.47;99398.41;5052792;28;20504;-43
2022/11/05 01:06:09;;;;;;;60.40;35.45;;;;;;;11.54;70.24;99386.03;5052651;28;20021;-43
2022/11/05 01:08:35;;;;;;;63.63;37.33;;;;;;;11.06;72.33;99387.41;5052376;28;20052;-44
2022/11/05 01:11:11;;;;;;;59.33;36.13;;;;;;;11.25;72.26;99379.47;5052124;28;20457;-44
2022/11/05 01:13:38;;;;;;;55.38;34.10;;;;;;;11.25;71.95;99382.97;5052409;28;20032;-44
2022/11/05 01:16:07;;;;;;;58.72;34.33;;;;;;;11.17;71.68;99369.91;5052076;28;20056;-44
2022/11/05 01:18:32;;;;;;;55.78;32.90;;;;;;;11.24;71.92;99381.34;5052344;28;20021;-43
2022/11/05 01:20:58;;;;;;;49.33;30.13;;;;;;;11.33;71.46;99389.88;5052125;28;20039;-43
2022/11/05 01:23:23;;;;;;;53.17;29.65;;;;;;;10.99;72.03;99380.50;5052008;28;20090;-43
2022/11/05 01:25:49;;;;;;;51.42;30.20;;;;;;;10.91;73.19;99379.72;5051822;28;20475;-43
2022/11/05 01:28:14;;;;;;;50.60;27.67;;;;;;;10.93;72.39;99372.34;5052229;28;20029;-43
2022/11/05 01:30:40;;;;;;;52.85;29.80;;;;;;;10.86;72.93;99358.25;5052100;28;20099;-44
2022/11/05 01:33:05;;;;;;;49.20;28.58;;;;;;;11.00;73.09;99360.81;5051986;28;20021;-42
2022/11/05 01:35:31;;;;;;;47.83;28.90;;;;;;;11.12;72.55;99356.44;5051802;28;20029;-42
2022/11/05 01:37:56;;;;;;;51.40;30.00;;;;;;;11.25;71.98;99352.84;5051522;28;20029;-44
2022/11/05 01:40:23;;;;;;;59.10;31.05;;;;;;;10.86;75.40;99354.78;5050540;28;20031;-43
2022/11/05 01:42:48;;;;;;;50.17;30.23;;;;;;;10.91;74.00;99347.78;5051577;28;20099;-42
2022/11/05 01:45:26;;;;;;;55.67;30.85;;;;;;;10.83;73.20;99353.34;5051791;28;20104;-42
2022/11/05 01:47:52;;;;;;;48.70;29.67;;;;;;;10.93;72.59;99352.88;5051669;28;20031;-42
2022/11/05 01:50:35;;;;;;;53.58;29.60;;;;;;;10.95;72.28;99348.97;5051766;28;20029;-42
2022/11/05 01:53:03;;;;;;;52.90;30.25;;;;;;;10.94;72.55;99343.84;5051554;28;20389;-44
2022/11/05 01:55:33;;;;;;;52.67;30.02;;;;;;;11.03;72.14;99344.41;5051544;28;20029;-42
2022/11/05 01:58:02;;;;;;;49.53;28.42;;;;;;;11.31;70.80;99338.69;5051616;28;20047;-42
2022/11/05 02:00:27;;;;;;;50.20;29.95;;;;;;;11.24;71.01;99343.22;5051566;28;20024;-42
2022/11/05 02:02:53;;;;;;;52.42;30.25;;;;;;;11.26;70.40;99347.31;5051365;28;20039;-42
2022/11/05 02:05:18;;;;;;;56.85;31.67;;;;;;;11.01;71.81;99336.63;5051476;28;20020;-43
2022/11/05 02:07:46;;;;;;;50.05;30.60;;;;;;;11.07;71.16;99342.94;5051710;28;20021;-43
2022/11/05 02:10:14;;;;;;;54.10;30.90;;;;;;;10.84;72.04;99339.00;5051470;28;20027;-44
2022/11/05 02:12:43;;;;;;;53.85;32.33;;;;;;;10.87;72.21;99327.94;5051452;28;20025;-44
2022/11/05 02:15:15;;;;;;;55.13;30.55;;;;;;;10.47;73.73;99325.53;5051104;28;20048;-44
2022/11/05 02:17:46;;;;;;;47.10;29.92;;;;;;;10.48;74.23;99321.81;5050969;28;20120;-45
2022/11/05 02:20:11;;;;;;;53.50;31.05;;;;;;;10.46;74.15;99326.53;5050857;28;20071;-43
2022/11/05 02:22:50;;;;;;;49.20;28.38;;;;;;;10.59;74.33;99330.16;5050775;28;20045;-44
2022/11/05 02:25:49;;;;;;;48.80;28.10;;;;;;;10.72;73.17;99324.78;5051417;28;20186;-44
2022/11/05 02:28:47;;;;;;;48.92;27.90;;;;;;;10.83;72.85;99323.25;5040934;28;20039;-45
2022/11/05 02:31:29;;;;;;;43.80;27.10;;;;;;;11.01;71.84;99326.00;5051332;28;20025;-44
2022/11/05 02:34:13;;;;;;;45.78;27.25;;;;;;;11.06;71.51;99322.66;5051391;28;20031;-45
2022/11/05 02:36:49;;;;;;;46.67;27.48;;;;;;;11.10;71.66;99324.69;5051113;28;20025;-44
2022/11/05 02:39:26;;;;;;;45.03;26.33;;;;;;;10.97;71.95;99324.78;5051157;28;20118;-44
2022/11/05 02:42:18;;;;;;;48.50;28.92;;;;;;;10.98;71.14;99326.41;5051245;28;20028;-44
2022/11/05 02:45:25;;;;;;;51.10;28.73;;;;;;;10.79;71.69;99322.84;5031295;28;20025;-45
2022/11/05 02:48:37;;;;;;;46.35;27.40;;;;;;;10.60;73.21;99327.28;5027916;28;20033;-45
2022/11/05 02:51:18;;;;;;;45.15;26.55;;;;;;;10.48;74.15;99323.66;5030733;28;20409;-45
2022/11/05 02:53:49;;;;;;;44.55;28.90;;;;;;;10.36;73.82;99324.34;5031013;28;20021;-42
2022/11/05 02:56:21;;;;;;;49.88;28.90;;;;;;;10.28;74.45;99323.72;5030981;28;20025;-43
2022/11/05 02:58:47;;;;;;;49.00;28.50;;;;;;;10.44;73.53;99331.25;5031056;28;20053;-44
2022/11/05 03:01:12;;;;;;;52.58;29.92;;;;;;;10.61;73.06;99328.09;5030685;28;20167;-44
2022/11/05 03:03:42;;;;;;;52.83;29.17;;;;;;;10.52;72.65;99336.31;5030891;28;20100;-43
2022/11/05 03:06:19;;;;;;;;;;;;;;;10.37;73.50;99338.44;5031347;28;20044;-43
2022/11/05 03:09:03;;;;;;;53.17;29.67;;;;;;;10.00;74.54;99334.69;5030827;28;19996;-44
2022/11/05 03:11:31;;;;;;;48.50;28.70;;;;;;;10.07;74.83;99340.78;5030835;28;20104;-43
2022/11/05 03:14:12;;;;;;;49.13;28.42;;;;;;;10.18;74.28;99353.44;5030615;28;20017;-42
2022/11/05 03:16:47;;;;;;;49.15;28.65;;;;;;;9.96;75.55;99343.06;5033793;28;20043;-43
2022/11/05 03:19:24;;;;;;;46.83;28.25;;;;;;;10.17;74.22;99346.50;5054068;28;20041;-43
2022/11/05 03:21:55;;;;;;;55.35;29.45;;;;;;;10.06;74.84;99332.00;5054889;28;20481;-43
2022/11/05 03:24:29;;;;;;;55.00;30.17;;;;;;;9.81;75.31;99313.28;5054673;28;20044;-45
2022/11/05 03:26:59;;;;;;;47.47;27.60;;;;;;;9.98;74.89;99326.94;5054765;28;20512;-43
2022/11/05 03:29:29;;;;;;;47.17;28.38;;;;;;;9.84;75.20;99331.44;5054617;28;20107;-43
2022/11/05 03:31:58;;;;;;;48.40;28.80;;;;;;;9.91;74.88;99334.09;5054852;28;20021;-42
2022/11/05 03:34:32;;;;;;;51.83;27.42;;;;;;;9.88;74.94;99319.41;5054395;28;20104;-43
2022/11/05 03:37:00;;;;;;;47.55;27.83;;;;;;;10.06;74.61;99337.31;5054512;28;20151;-43
2022/11/05 03:39:31;;;;;;;56.47;28.52;;;;;;;10.02;74.72;99343.28;5054457;28;20540;-43
2022/11/05 03:41:58;;;;;;;54.30;27.50;;;;;;;9.84;74.39;99339.41;5054283;28;20021;-43
2022/11/05 03:44:31;;;;;;;50.78;28.15;;;;;;;9.88;74.94;99322.06;5054441;28;20025;-44
2022/11/05 03:47:07;;;;;;;50.00;27.05;;;;;;;9.98;74.64;99322.41;5054221;28;20059;-47
2022/11/05 03:49:57;;;;;;;47.13;27.33;;;;;;;10.12;74.46;99339.13;5054048;28;20029;-43
2022/11/05 03:52:32;;;;;;;50.55;29.05;;;;;;;10.03;74.32;99331.59;5043087;28;20043;-43
2022/11/05 03:54:58;;;;;;;48.33;26.83;;;;;;;10.10;73.84;99327.88;5054099;28;20025;-43
2022/11/05 03:57:31;;;;;;;45.92;27.17;;;;;;;9.94;74.70;99328.38;5054335;28;20064;-43
2022/11/05 03:59:57;;;;;;;48.80;27.23;;;;;;;10.13;74.10;99329.34;5054155;28;20021;-43
2022/11/05 04:02:25;;;;;;;47.22;26.08;;;;;;;10.06;74.31;99328.53;5053605;28;20027;-43
2022/11/05 04:04:51;;;;;;;45.88;25.13;;;;;;;9.77;75.19;99328.81;5054173;28;20025;-43
2022/11/05 04:15:30;;;;;;;44.65;26.48;;;;;;;9.62;75.44;99330.91;5054172;28;20031;-42
2022/11/05 04:17:57;;;;;;;42.47;25.55;;;;;;;9.37;76.84;99333.38;5053716;28;20025;-42
2022/11/05 04:25:53;;;;;;;41.03;24.15;;;;;;;9.53;77.04;99332.94;5053287;28;20610;-43
2022/11/05 04:28:18;;;;;;;46.45;25.42;;;;;;;9.72;76.70;99338.44;5053382;28;20047;-43
2022/11/05 04:30:43;;;;;;;44.00;24.48;;;;;;;9.95;75.38;99341.44;5053190;28;20017;-42
2022/11/05 04:33:10;;;;;;;42.30;24.77;;;;;;;9.86;75.45;99339.22;5053048;28;20350;-44
2022/11/05 04:35:38;;;;;;;45.35;24.40;;;;;;;9.55;76.27;99346.81;5052749;28;20021;-44
2022/11/05 04:38:05;;;;;;;42.67;25.55;;;;;;;9.62;76.80;99354.81;5052722;28;20040;-44
2022/11/05 04:40:31;;;;;;;45.38;23.95;;;;;;;9.75;76.03;99357.44;5052983;28;20100;-44
2022/11/05 04:42:57;;;;;;;38.50;24.08;;;;;;;9.81;75.73;99354.97;5052499;28;20033;-43
2022/11/05 04:45:24;;;;;;;41.75;24.27;;;;;;;9.78;76.31;99359.66;5052758;28;20028;-42
2022/11/05 04:47:49;;;;;;;42.50;24.20;;;;;;;9.83;75.63;99358.25;5050520;28;20052;-43
2022/11/05 04:50:15;;;;;;;37.83;23.00;;;;;;;9.71;75.90;99374.00;5053049;28;20116;-43
2022/11/05 04:52:41;;;;;;;44.70;24.08;;;;;;;9.85;75.34;99370.28;5052955;28;20029;-43
2022/11/05 04:55:07;;;;;;;39.72;23.27;;;;;;;9.71;76.20;99374.00;5052496;28;20058;-42
2022/11/05 04:57:33;;;;;;;46.05;25.25;;;;;;;9.89;75.28;99362.72;5052334;28;20075;-43
2022/11/05 04:59:58;;;;;;;46.25;24.58;;;;;;;10.03;74.26;99364.31;5052698;28;20021;-42
2022/11/05 05:02:23;;;;;;;41.03;23.77;;;;;;;9.90;74.68;99375.81;5052575;28;20028;-42
2022/11/05 05:04:49;;;;;;;41.05;23.95;;;;;;;9.97;74.30;99379.25;5052596;28;20453;-42
2022/11/05 05:07:14;;;;;;;39.08;23.20;;;;;;;9.87;75.06;99381.53;5052496;28;20021;-43
2022/11/05 05:09:40;;;;;;;42.47;24.95;;;;;;;9.72;76.07;99400.34;5052809;28;20108;-43
2022/11/05 05:12:06;;;;;;;48.33;26.58;;;;;;;9.63;76.71;99395.47;5052780;28;20554;-44
2022/11/05 05:14:32;;;;;;;42.42;25.55;;;;;;;9.46;77.37;99385.28;5053116;28;20141;-44
2022/11/05 05:16:57;;;;;;;44.92;25.83;;;;;;;9.75;76.26;99378.69;5052657;28;20480;-42
2022/11/05 05:19:23;;;;;;;51.70;31.00;;;;;;;9.96;75.52;99392.78;5052739;28;20017;-42
2022/11/05 05:21:49;;;;;;;41.15;26.13;;;;;;;9.88;75.41;99401.78;5052631;28;20021;-43
2022/11/05 05:24:17;;;;;;;48.75;25.75;;;;;;;9.77;76.02;99391.78;5052317;28;20045;-43
2022/11/05 05:26:48;;;;;;;39.05;24.77;;;;;;;9.78;75.77;99383.56;5052815;28;20059;-43
2022/11/05 05:29:14;;;;;;;56.85;32.03;;;;;;;9.81;75.83;99392.19;5052139;28;20082;-42
2022/11/05 05:31:39;;;;;;;49.03;29.10;;;;;;;9.72;76.41;99403.00;5050727;28;20024;-42
2022/11/05 05:34:06;;;;;;;52.60;30.25;;;;;;;9.80;75.90;99407.28;5052331;28;20021;-43
2022/11/05 05:36:32;;;;;;;49.58;28.83;;;;;;;9.89;75.44;99413.22;5051673;28;20021;-43
2022/11/05 05:38:57;;;;;;;45.60;27.33;;;;;;;9.66;76.83;99403.84;5050987;28;20481;-42
2022/11/05 05:41:23;;;;;;;42.53;26.48;;;;;;;9.94;75.84;99394.81;5051930;28;20564;-43
2022/11/05 05:43:49;;;;;;;44.38;26.40;;;;;;;10.64;79.02;99394.19;5051353;28;20071;-43
2022/11/05 05:46:18;;;;;;;41.47;24.85;;;;;;;11.83;81.40;99413.03;5048897;28;20021;-42
2022/11/05 05:48:48;;;;;;;34.47;22.08;;;;;;;13.00;77.13;99410.22;5050168;28;20071;-43
2022/11/05 05:51:14;;;;;;;35.90;22.10;;;;;;;13.92;72.81;99410.84;5053922;28;20122;-42
2022/11/05 05:53:39;;;;;;;34.72;21.95;;;;;;;14.71;67.97;99405.03;5059520;28;20516;-41
2022/11/05 05:56:06;;;;;;;80.38;46.33;;;;;;;15.12;64.35;99403.13;5053289;28;20587;-43
2022/11/05 05:58:37;;;;;;;39.35;22.55;;;;;;;15.43;62.23;99409.81;5049306;28;20118;-45
2022/11/05 06:01:05;;;;;;;37.40;21.13;;;;;;;15.59;60.92;99409.00;5049460;28;20067;-43
2022/11/05 06:03:31;;;;;;;31.60;20.27;;;;;;;16.19;59.19;99417.38;5050086;28;20400;-44
2022/11/05 06:06:04;;;;;;;31.45;19.65;;;;;;;16.38;55.52;99421.41;5049669;28;20025;-43
2022/11/05 06:08:30;;;;;;;30.25;19.42;;;;;;;16.35;56.04;99424.56;5049726;28;20478;-43
2022/11/05 06:10:56;;;;;;;30.33;19.65;;;;;;;16.54;60.95;99426.94;5060197;28;20553;-44
2022/11/05 06:13:21;;;;;;;33.38;21.30;;;;;;;17.04;55.60;99430.47;5050214;28;20485;-43
2022/11/05 06:15:46;;;;;;;32.40;20.45;;;;;;;17.23;52.96;99429.06;5048473;28;20447;-46
2022/11/05 06:18:12;;;;;;;30.52;20.45;;;;;;;17.61;50.13;99431.78;5047735;28;20378;-42
2022/11/05 06:20:37;;;;;;;32.80;20.13;;;;;;;17.62;49.23;99428.06;5042442;28;20620;-42
2022/11/05 06:23:03;;;;;;;32.15;20.83;;;;;;;17.41;48.97;99429.75;5049738;28;20043;-43
2022/11/05 06:25:28;;;;;;;29.75;20.30;;;;;;;17.29;49.59;99427.25;5045890;28;20049;-42
2022/11/05 06:27:54;;;;;;;32.90;20.92;;;;;;;17.51;48.85;99440.59;5050822;28;20017;-43
2022/11/05 06:30:20;;;;;;;32.05;21.10;;;;;;;17.35;48.73;99434.28;5050091;28;20112;-43
2022/11/05 06:32:46;;;;;;;34.63;21.50;;;;;;;17.38;49.15;99439.97;5049102;28;20147;-44
2022/11/05 06:35:12;;;;;;;38.28;20.88;;;;;;;17.30;49.56;99437.72;5048561;28;20107;-42
2022/11/05 06:37:37;;;;;;;29.55;20.15;;;;;;;17.54;49.02;99440.09;5050107;28;20024;-44
2022/11/05 06:40:03;;;;;;;34.63;20.80;;;;;;;17.82;48.38;99436.28;5062645;28;20435;-42
2022/11/05 06:42:28;;;;;;;31.98;20.40;;;;;;;17.98;48.00;99443.41;5068293;28;20453;-44
2022/11/05 06:44:54;;;;;;;34.67;23.35;;;;;;;18.39;47.42;99439.31;5059020;28;20485;-41
2022/11/05 06:47:19;;;;;;;43.78;29.23;;;;;;;18.51;47.14;99446.13;5049174;28;20043;-46
2022/11/05 06:49:45;;;;;;;32.90;22.27;;;;;;;18.72;47.73;99444.31;5048705;28;20447;-43
2022/11/05 06:52:12;;;;;;;35.30;22.17;;;;;;;19.03;45.28;99433.63;5048447;28;20044;-42
2022/11/05 06:54:38;;;;;;;33.10;20.67;;;;;;;19.12;45.49;99433.94;5049387;28;20028;-41
2022/11/05 06:57:04;;;;;;;29.35;20.10;;;;;;;19.34;44.69;99437.19;5037925;28;20037;-36
2022/11/05 06:59:30;;;;;;;31.25;20.92;;;;;;;19.73;49.15;99427.78;5028399;28;20037;-37
2022/11/05 07:01:56;;;;;;;37.67;21.63;;;;;;;20.08;44.36;99426.88;5038425;28;20029;-37
2022/11/05 07:04:21;;;;;;;39.08;22.08;;;;;;;20.04;43.62;99428.53;5047345;28;20029;-36
2022/11/05 07:06:47;;;;;;;30.30;20.90;;;;;;;20.00;43.82;99437.47;5048632;28;20408;-36
2022/11/05 07:09:12;;;;;;;33.92;22.48;;;;;;;20.24;43.39;99440.38;5048203;28;20033;-36
2022/11/05 07:11:37;;;;;;;37.22;21.38;;;;;;;20.11;43.63;99442.56;5048595;28;20518;-37
2022/11/05 07:14:03;;;;;;;46.35;23.40;;;;;;;20.14;43.61;99435.78;5047552;28;20028;-36
2022/11/05 07:16:28;;;;;;;38.38;23.02;;;;;;;20.17;43.35;99447.97;5048616;28;20104;-37
2022/11/05 07:18:54;;;;;;;37.33;23.45;;;;;;;20.44;42.77;99428.69;5048402;28;20043;-42
2022/11/05 07:21:21;;;;;;;39.60;23.08;;;;;;;20.39;42.02;99432.22;5047321;28;20099;-42
2022/11/05 07:23:46;;;;;;;36.15;23.17;;;;;;;20.66;41.19;99431.88;5047418;28;20056;-43
2022/11/05 07:26:12;;;;;;;38.10;23.20;;;;;;;20.62;43.53;99428.09;5047955;28;20024;-43
2022/11/05 07:28:37;;;;;;;33.97;22.17;;;;;;;20.78;43.41;99420.72;5048651;28;20178;-43
2022/11/05 07:31:03;;;;;;;36.50;22.13;;;;;;;20.64;43.51;99422.44;5048618;28;20028;-43
2022/11/05 07:33:28;;;;;;;41.15;23.20;;;;;;;20.45;42.70;99420.31;5049194;28;20039;-43
2022/11/05 07:35:57;;;;;;;40.53;23.73;;;;;;;20.55;42.04;99419.44;5049019;28;20112;-44
2022/11/05 07:38:23;;;;;;;42.70;23.67;;;;;;;21.02;41.49;99404.63;5049228;28;20031;-44
2022/11/05 07:40:48;;;;;;;39.90;23.35;;;;;;;20.62;42.26;99403.78;5049206;28;20016;-44
2022/11/05 07:43:14;;;;;;;37.10;23.75;;;;;;;20.98;41.97;99392.75;5048598;28;20031;-43
2022/11/05 07:45:39;;;;;;;40.92;23.38;;;;;;;20.55;42.27;99395.13;5049037;28;20057;-43
2022/11/05 07:48:05;;;;;;;34.35;23.13;;;;;;;20.86;42.08;99394.97;5048654;28;20021;-44
2022/11/05 07:50:35;;;;;;;38.83;24.35;;;;;;;21.01;40.77;99403.00;5049058;28;20044;-43
2022/11/05 07:53:12;;;;;;;39.00;22.92;;;;;;;21.01;41.29;99389.47;5049122;28;20021;-43
2022/11/05 07:55:42;;;;;;;39.85;24.40;;;;;;;21.35;40.62;99385.19;5048550;28;20056;-43
2022/11/05 07:58:09;;;;;;;36.80;23.55;;;;;;;21.46;40.11;99390.25;5039518;28;20520;-48
2022/11/05 08:00:34;;;;;;;39.75;23.67;;;;;;;21.66;39.99;99374.91;5028762;28;20025;-49
2022/11/05 08:03:01;;;;;;;39.33;23.45;;;;;;;21.71;40.11;99382.97;5032114;28;20060;-48
2022/11/05 08:05:28;;;;;;;46.35;25.35;;;;;;;21.99;39.81;99378.63;5032289;28;20028;-47
2022/11/05 08:07:54;;;;;;;41.72;24.98;;;;;;;22.06;39.64;99383.69;5032506;28;20060;-42
2022/11/05 08:10:21;;;;;;;40.75;23.83;;;;;;;22.17;38.50;99373.53;5032923;28;20107;-42
2022/11/05 08:12:47;;;;;;;50.65;30.55;;;;;;;21.97;38.39;99382.69;5032744;28;20434;-43
2022/11/05 08:15:12;;;;;;;44.10;29.17;;;;;;;22.09;39.31;99385.84;5033133;28;20057;-41
2022/11/05 08:17:38;;;;;;;47.70;28.40;;;;;;;21.40;40.52;99383.22;5042700;28;20214;-41
2022/11/05 08:20:04;;;;;;;44.72;25.48;;;;;;;21.84;39.57;99382.31;5052878;28;20048;-41
2022/11/05 08:22:29;;;;;;;45.17;24.80;;;;;;;21.73;39.81;99385.41;5052125;28;20051;-42
2022/11/05 08:24:55;;;;;;;42.15;25.48;;;;;;;21.80;39.61;99378.56;5052200;28;20049;-42
2022/11/05 08:27:20;;;;;;;50.72;24.52;;;;;;;21.79;40.37;99385.06;5052641;28;20024;-42
2022/11/05 08:29:45;;;;;;;36.75;23.77;;;;;;;22.63;38.42;99389.25;5052711;28;20029;-43
2022/11/05 08:32:11;;;;;;;42.78;24.58;;;;;;;22.95;37.91;99380.38;5052557;28;20091;-40
2022/11/05 08:34:36;;;;;;;47.47;26.15;;;;;;;22.38;38.56;99393.09;5052679;28;20439;-41
2022/11/05 08:37:02;;;;;;;45.67;25.85;;;;;;;22.09;38.83;99387.75;5052568;28;20031;-43
2022/11/05 08:39:27;;;;;;;42.50;27.90;;;;;;;22.64;37.37;99390.88;5052840;28;20028;-43
2022/11/05 08:41:53;;;;;;;43.83;26.70;;;;;;;22.37;38.48;99377.94;5052482;28;20028;-42
2022/11/05 08:44:18;;;;;;;41.15;25.83;;;;;;;22.62;38.19;99377.59;5052049;28;20492;-43
2022/11/05 08:46:44;;;;;;;81.45;57.10;;;;;;;22.63;38.96;99379.19;5051832;28;20031;-43
2022/11/05 08:49:09;;;;;;;82.28;54.53;;;;;;;22.82;37.59;99378.41;5051944;28;20631;-43
2022/11/05 08:51:34;;;;;;;39.75;26.98;;;;;;;22.70;38.05;99375.34;5051920;28;20045;-42
2022/11/05 08:54:00;;;;;;;46.53;27.08;;;;;;;22.51;38.26;99370.72;5051993;28;20021;-43
2022/11/05 08:56:25;;;;;;;39.42;25.48;;;;;;;22.55;37.96;99369.03;5052179;28;20599;-42
2022/11/05 08:58:51;;;;;;;39.72;26.00;;;;;;;22.13;39.14;99362.47;5051439;28;20509;-41
2022/11/05 09:01:16;;;;;;;39.20;26.35;;;;;;;22.83;38.29;99364.56;5051601;28;20445;-41
2022/11/05 09:03:42;;;;;;;39.33;25.70;;;;;;;23.01;37.92;99364.84;5051458;28;20036;-42
2022/11/05 09:06:07;;;;;;;42.97;27.48;;;;;;;23.04;36.74;99353.44;5051967;28;20382;-42
2022/11/05 09:08:33;;;;;;;48.40;28.17;;;;;;;22.85;37.26;99356.13;5050556;28;20303;-42
2022/11/05 09:10:59;;;;;;;45.17;27.08;;;;;;;22.73;38.21;99359.31;5051942;28;20048;-43
2022/11/05 09:13:25;;;;;;;36.83;24.15;;;;;;;22.67;37.94;99344.19;5050591;28;20025;-42
2022/11/05 09:15:51;;;;;;;33.35;21.25;;;;;;;22.64;37.57;99358.34;5051771;28;20025;-44
2022/11/05 09:18:18;;;;;;;35.05;21.75;;;;;;;22.18;38.91;99351.59;5051657;28;20024;-41
2022/11/05 09:20:44;;;;;;;33.70;20.65;;;;;;;22.26;38.80;99352.88;5051686;28;20389;-41
2022/11/05 09:23:12;;;;;;;33.03;22.35;;;;;;;22.71;38.78;99350.63;5050168;28;20029;-42
2022/11/05 09:25:38;;;;;;;35.95;21.33;;;;;;;22.46;38.61;99346.38;5053843;28;20048;-44
2022/11/05 09:28:12;;;;;;;34.95;21.02;;;;;;;21.79;39.85;99333.59;5050069;28;20549;-41
2022/11/05 09:30:42;;;;;;;40.10;21.67;;;;;;;22.20;39.41;99346.69;5052972;28;20699;-44
2022/11/05 09:33:08;;;;;;;44.63;25.95;;;;;;;22.05;39.63;99349.56;5051397;28;20062;-43
2022/11/05 09:35:36;;;;;;;38.40;22.05;;;;;;;22.27;39.37;99342.84;5053258;28;20052;-44
2022/11/05 09:38:01;;;;;;;34.25;22.00;;;;;;;22.49;39.28;99342.28;5049832;28;20489;-42
2022/11/05 09:40:30;;;;;;;35.80;21.88;;;;;;;22.13;40.45;99334.59;5049923;28;20104;-43
2022/11/05 09:42:55;;;;;;;32.78;20.55;;;;;;;22.65;39.92;99328.19;5049933;28;20056;-42
2022/11/05 09:45:23;;;;;;;32.83;19.85;;;;;;;22.70;39.16;99327.31;5048933;28;20210;-43
2022/11/05 09:47:55;;;;;;;29.55;19.77;;;;;;;22.51;39.67;99330.03;5050772;28;20028;-42
2022/11/05 09:50:42;;;;;;;36.00;20.88;;;;;;;21.71;41.34;99323.41;5048500;28;20039;-42
2022/11/05 09:53:13;;;;;;;41.63;22.63;;;;;;;21.46;42.18;99316.38;5047892;28;20025;-42
2022/11/05 09:56:01;;;;;;;36.22;20.27;;;;;;;21.89;41.12;99321.84;5049233;28;20033;-43
2022/11/05 09:58:42;;;;;;;30.80;19.30;;;;;;;22.25;40.45;99313.31;5048527;28;20133;-43
2022/11/05 10:01:20;;;;;;;33.63;20.65;;;;;;;22.06;40.79;99318.66;5048918;28;20120;-37
2022/11/05 10:03:49;;;;;;;31.70;19.45;;;;;;;21.99;41.00;99307.38;5049247;28;20036;-36
2022/11/05 10:06:23;;;;;;;32.53;18.75;;;;;;;21.59;42.21;99298.63;5049077;28;20046;-37
2022/11/05 10:09:22;;;;;;;32.35;19.23;;;;;;;21.79;41.83;99295.69;5048328;28;20025;-37
2022/11/05 10:12:06;;;;;;;30.95;19.27;;;;;;;22.58;39.87;99294.41;5046800;28;20059;-37
2022/11/05 10:14:39;;;;;;;32.97;19.40;;;;;;;22.77;39.95;99292.50;5047322;28;20028;-37
2022/11/05 10:17:25;;;;;;;39.20;18.80;;;;;;;22.36;40.26;99289.59;5046477;28;20086;-36
2022/11/05 10:19:59;;;;;;;37.83;19.80;;;;;;;20.92;43.49;99282.97;5046924;28;20028;-36
2022/11/05 10:22:24;;;;;;;28.13;19.02;;;;;;;20.53;44.82;99281.06;5048535;28;20032;-36
2022/11/05 10:24:51;;;;;;;34.95;20.23;;;;;;;20.53;44.81;99281.06;5048254;28;20045;-36
2022/11/05 10:27:26;;;;;;;31.33;20.27;;;;;;;20.74;45.06;99284.47;5048067;28;20105;-43
2022/11/05 10:29:52;;;;;;;30.30;19.25;;;;;;;21.32;43.88;99275.56;5047362;28;20044;-43
2022/11/05 10:32:38;;;;;;;32.85;20.75;;;;;;;20.68;45.42;99274.78;5048548;28;20021;-43
2022/11/05 10:35:07;;;;;;;30.95;19.92;;;;;;;20.64;45.36;99279.16;5048949;28;20054;-42
2022/11/05 10:37:33;;;;;;;33.78;20.48;;;;;;;20.34;45.81;99285.53;5048876;28;20023;-42
2022/11/05 10:39:59;;;;;;;34.15;20.58;;;;;;;21.11;44.55;99272.25;5049083;28;20024;-43
2022/11/05 10:42:34;;;;;;;35.00;21.45;;;;;;;20.36;45.60;99273.34;5049304;28;20051;-43
2022/11/05 10:45:37;;;;;;;32.22;20.58;;;;;;;20.69;46.14;99268.28;5047260;28;20448;-37
2022/11/05 10:48:03;;;;;;;34.75;20.25;;;;;;;20.69;45.45;99261.00;5046406;28;20675;-36
2022/11/05 10:50:29;;;;;;;29.42;19.13;;;;;;;20.83;45.44;99255.75;5047104;28;20112;-38
2022/11/05 10:53:02;;;;;;;28.48;19.67;;;;;;;20.69;45.63;99254.78;5048141;28;20134;-37
2022/11/05 10:55:31;;;;;;;30.88;19.60;;;;;;;20.93;45.06;99254.06;5048916;28;20044;-36
2022/11/05 10:58:27;;;;;;;;;;;;;;;21.42;44.46;99255.75;5045146;28;20029;-36
2022/11/05 11:00:53;;;;;;;29.92;19.10;;;;;;;21.54;43.54;99264.31;5038096;28;19909;-37
2022/11/05 11:03:44;;;;;;;77.85;50.70;;;;;;;21.43;44.44;99251.94;5048008;28;20044;-37
2022/11/05 11:06:25;;;;;;;28.30;18.92;;;;;;;21.84;43.27;99248.81;5029356;28;20156;-37
2022/11/05 11:08:54;;;;;;;29.83;18.45;;;;;;;21.18;44.00;99232.16;5028410;28;20668;-37
2022/11/05 11:11:37;;;;;;;30.50;18.63;;;;;;;20.47;45.84;99234.34;5042261;28;20029;-37
2022/11/05 11:14:12;;;;;;;26.85;18.40;;;;;;;20.97;45.36;99231.56;5049189;28;20362;-36
2022/11/05 11:16:47;;;;;;;29.13;19.13;;;;;;;20.73;45.28;99239.59;5048979;28;20098;-36
2022/11/05 11:19:24;;;;;;;32.53;18.20;;;;;;;20.88;45.49;99235.97;5049182;28;20126;-36
2022/11/05 11:22:20;;;;;;;34.13;18.90;;;;;;;20.85;45.13;99223.81;5049133;28;20036;-38
2022/11/05 11:24:52;;;;;;;26.27;18.40;;;;;;;21.65;44.24;99211.66;5047451;28;20037;-36
2022/11/05 11:27:27;;;;;;;35.63;19.55;;;;;;;22.23;42.65;99232.28;5048640;28;20435;-36
2022/11/05 11:30:02;;;;;;;31.02;18.10;;;;;;;22.65;41.43;99219.72;5045845;28;20724;-36
2022/11/05 11:32:34;;;;;;;26.23;17.85;;;;;;;22.77;41.10;99208.44;5048511;28;20500;-37
2022/11/05 11:35:01;;;;;;;30.45;18.35;;;;;;;22.69;40.83;99202.88;5045858;28;20537;-37
2022/11/05 11:37:33;;;;;;;29.23;18.63;;;;;;;22.48;41.08;99195.06;5051966;28;20021;-37
2022/11/05 11:40:13;;;;;;;27.33;17.85;;;;;;;22.63;40.40;99199.44;5052916;28;20025;-43
2022/11/05 11:42:43;;;;;;;30.17;19.13;;;;;;;21.92;42.36;99206.72;5052188;28;20043;-43
2022/11/05 11:45:22;;;;;;;29.77;18.88;;;;;;;22.25;41.57;99200.28;5052026;28;20475;-44
2022/11/05 11:47:49;;;;;;;31.05;20.60;;;;;;;22.53;41.07;99197.72;5049178;28;20099;-43
2022/11/05 11:50:42;;;;;;;29.65;20.17;;;;;;;22.16;41.22;99207.47;5051668;28;20033;-43
2022/11/05 11:53:19;;;;;;;31.38;21.23;;;;;;;21.80;42.36;99204.41;5051885;28;20025;-44
2022/11/05 11:55:54;;;;;;;34.70;20.77;;;;;;;22.05;42.08;99193.25;5051546;28;20033;-43
2022/11/05 11:58:21;;;;;;;33.35;20.73;;;;;;;22.56;41.19;99186.28;5051971;28;20100;-43
2022/11/05 12:00:56;;;;;;;37.65;21.63;;;;;;;22.88;40.32;99187.34;5051707;28;20024;-42
2022/11/05 12:03:43;;;;;;;37.97;20.27;;;;;;;22.98;40.36;99176.34;5048825;28;20403;-44
2022/11/05 12:06:14;;;;;;;32.20;19.08;;;;;;;21.98;42.12;99176.53;5050531;28;20024;-37
2022/11/05 12:09:14;;;;;;;32.60;19.70;;;;;;;22.55;40.98;99178.44;5048099;28;20443;-36